sensor_id;sensor_type;location;lat;lon;timestamp;P1;durP1;ratioP1;P2;durP2;ratioP2
83558;SDS011;73527;47.882;7.718;2024-02-28T00:01:20;25.23;;;15.93;;
83558;SDS011;73527;47.882;7.718;2024-02-28T00:03:46;25.05;;;16.63;;
83558;SDS011;73527;47.882;7.718;2024-02-28T00:06:12;26.83;;;16.85;;
83558;SDS011;73527;47.882;7.718;2024-02-28T00:08:37;24.77;;;15.15;;
83558;SDS011;73527;47.882;7.718;2024-02-28T00:11:02;25.40;;;15.82;;
83558;SDS011;73527;47.882;7.718;2024-02-28T00:13:28;26.15;;;16.52;;
83558;SDS011;73527;47.882;7.718;2024-02-28T00:15:53;28.77;;;16.98;;
83558;SDS011;73527;47.882;7.718;2024-02-28T00:18:18;29.40;;;17.83;;
83558;SDS011;73527;47.882;7.718;2024-02-28T00:20:44;28.55;;;17.25;;
83558;SDS011;73527;47.882;7.718;2024-02-28T00:23:10;27.35;;;17.00;;
83558;SDS011;73527;47.882;7.718;2024-02-28T00:25:35;26.48;;;16.10;;
83558;SDS011;73527;47.882;7.718;2024-02-28T00:28:01;29.00;;;17.08;;
83558;SDS011;73527;47.882;7.718;2024-02-28T00:30:26;27.33;;;17.33;;
83558;SDS011;73527;47.882;7.718;2024-02-28T00:32:53;29.42;;;18.08;;
83558;SDS011;73527;47.882;7.718;2024-02-28T00:35:19;26.55;;;17.05;;
83558;SDS011;73527;47.882;7.718;2024-02-28T00:37:44;24.55;;;16.50;;
83558;SDS011;73527;47.882;7.718;2024-02-28T00:40:10;26.15;;;17.30;;
83558;SDS011;73527;47.882;7.718;2024-02-28T00:42:36;25.92;;;16.38;;
83558;SDS011;73527;47.882;7.718;2024-02-28T00:45:01;28.63;;;17.00;;
83558;SDS011;73527;47.882;7.718;2024-02-28T00:47:27;24.17;;;15.30;;
83558;SDS011;73527;47.882;7.718;2024-02-28T00:49:53;24.58;;;15.88;;
83558;SDS011;73527;47.882;7.718;2024-02-28T00:52:18;30.58;;;17.90;;
83558;SDS011;73527;47.882;7.718;2024-02-28T00:54:43;31.10;;;18.20;;
83558;SDS011;73527;47.882;7.718;2024-02-28T00:57:09;29.98;;;18.63;;
83558;SDS011;73527;47.882;7.718;2024-02-28T00:59:34;33.75;;;19.08;;
83558;SDS011;73527;47.882;7.718;2024-02-28T01:01:59;30.30;;;17.08;;
83558;SDS011;73527;47.882;7.718;2024-02-28T01:04:25;29.67;;;18.58;;
83558;SDS011;73527;47.882;7.718;2024-02-28T01:06:50;31.48;;;19.48;;
83558;SDS011;73527;47.882;7.718;2024-02-28T01:09:16;29.65;;;18.10;;
83558;SDS011;73527;47.882;7.718;2024-02-28T01:11:41;33.30;;;17.80;;
83558;SDS011;73527;47.882;7.718;2024-02-28T01:14:06;32.03;;;18.52;;
83558;SDS011;73527;47.882;7.718;2024-02-28T01:16:31;29.40;;;18.75;;
83558;SDS011;73527;47.882;7.718;2024-02-28T01:18:57;27.95;;;18.17;;
83558;SDS011;73527;47.882;7.718;2024-02-28T01:21:22;30.27;;;19.88;;
83558;SDS011;73527;47.882;7.718;2024-02-28T01:23:48;31.73;;;18.00;;
83558;SDS011;73527;47.882;7.718;2024-02-28T01:26:13;30.65;;;18.55;;
83558;SDS011;73527;47.882;7.718;2024-02-28T01:28:38;29.48;;;17.58;;
83558;SDS011;73527;47.882;7.718;2024-02-28T01:31:04;28.63;;;18.33;;
83558;SDS011;73527;47.882;7.718;2024-02-28T01:35:56;33.53;;;18.70;;
83558;SDS011;73527;47.882;7.718;2024-02-28T01:38:21;30.48;;;19.15;;
83558;SDS011;73527;47.882;7.718;2024-02-28T01:40:46;29.55;;;18.15;;
83558;SDS011;73527;47.882;7.718;2024-02-28T01:43:12;34.45;;;19.80;;
83558;SDS011;73527;47.882;7.718;2024-02-28T01:45:38;33.03;;;18.38;;
83558;SDS011;73527;47.882;7.718;2024-02-28T01:48:04;28.20;;;17.98;;
83558;SDS011;73527;47.882;7.718;2024-02-28T01:50:31;30.83;;;17.20;;
83558;SDS011;73527;47.882;7.718;2024-02-28T01:55:23;27.25;;;17.15;;
83558;SDS011;73527;47.882;7.718;2024-02-28T01:57:48;31.05;;;17.95;;
83558;SDS011;73527;47.882;7.718;2024-02-28T02:00:13;26.80;;;16.10;;
83558;SDS011;73527;47.882;7.718;2024-02-28T02:02:42;32.55;;;18.20;;
83558;SDS011;73527;47.882;7.718;2024-02-28T02:05:08;29.90;;;18.40;;
83558;SDS011;73527;47.882;7.718;2024-02-28T02:07:34;30.20;;;18.90;;
83558;SDS011;73527;47.882;7.718;2024-02-28T02:12:25;26.30;;;17.35;;
83558;SDS011;73527;47.882;7.718;2024-02-28T02:14:51;29.48;;;17.38;;
83558;SDS011;73527;47.882;7.718;2024-02-28T02:17:16;31.50;;;18.88;;
83558;SDS011;73527;47.882;7.718;2024-02-28T02:19:42;31.85;;;18.90;;
83558;SDS011;73527;47.882;7.718;2024-02-28T02:22:08;31.45;;;19.70;;
83558;SDS011;73527;47.882;7.718;2024-02-28T02:24:35;31.70;;;18.40;;
83558;SDS011;73527;47.882;7.718;2024-02-28T02:27:02;33.65;;;20.63;;
83558;SDS011;73527;47.882;7.718;2024-02-28T02:29:30;33.58;;;19.65;;
83558;SDS011;73527;47.882;7.718;2024-02-28T02:31:56;29.73;;;18.05;;
83558;SDS011;73527;47.882;7.718;2024-02-28T02:34:21;32.33;;;18.35;;
83558;SDS011;73527;47.882;7.718;2024-02-28T02:36:47;31.08;;;19.08;;
83558;SDS011;73527;47.882;7.718;2024-02-28T02:39:12;29.73;;;18.73;;
83558;SDS011;73527;47.882;7.718;2024-02-28T02:41:37;35.22;;;19.98;;
83558;SDS011;73527;47.882;7.718;2024-02-28T02:44:03;31.48;;;18.20;;
83558;SDS011;73527;47.882;7.718;2024-02-28T02:46:28;34.67;;;18.45;;
83558;SDS011;73527;47.882;7.718;2024-02-28T02:48:54;31.58;;;18.42;;
83558;SDS011;73527;47.882;7.718;2024-02-28T02:51:19;31.35;;;18.52;;
83558;SDS011;73527;47.882;7.718;2024-02-28T02:53:45;29.70;;;17.88;;
83558;SDS011;73527;47.882;7.718;2024-02-28T02:56:11;31.63;;;19.63;;
83558;SDS011;73527;47.882;7.718;2024-02-28T02:58:37;29.48;;;18.65;;
83558;SDS011;73527;47.882;7.718;2024-02-28T03:01:02;32.38;;;18.33;;
83558;SDS011;73527;47.882;7.718;2024-02-28T03:03:27;31.67;;;18.90;;
83558;SDS011;73527;47.882;7.718;2024-02-28T03:05:53;31.33;;;19.75;;
83558;SDS011;73527;47.882;7.718;2024-02-28T03:08:18;34.40;;;19.42;;
83558;SDS011;73527;47.882;7.718;2024-02-28T03:10:43;34.05;;;20.23;;
83558;SDS011;73527;47.882;7.718;2024-02-28T03:13:09;32.13;;;18.70;;
83558;SDS011;73527;47.882;7.718;2024-02-28T03:15:34;31.23;;;19.40;;
83558;SDS011;73527;47.882;7.718;2024-02-28T03:18:00;35.03;;;20.02;;
83558;SDS011;73527;47.882;7.718;2024-02-28T03:20:25;32.92;;;19.67;;
83558;SDS011;73527;47.882;7.718;2024-02-28T03:22:51;32.97;;;18.52;;
83558;SDS011;73527;47.882;7.718;2024-02-28T03:25:16;31.55;;;20.67;;
83558;SDS011;73527;47.882;7.718;2024-02-28T03:27:41;33.22;;;19.27;;
83558;SDS011;73527;47.882;7.718;2024-02-28T03:30:07;34.78;;;20.85;;
83558;SDS011;73527;47.882;7.718;2024-02-28T03:32:32;30.10;;;19.25;;
83558;SDS011;73527;47.882;7.718;2024-02-28T03:34:58;32.10;;;19.70;;
83558;SDS011;73527;47.882;7.718;2024-02-28T03:37:23;32.00;;;19.75;;
83558;SDS011;73527;47.882;7.718;2024-02-28T03:39:48;33.35;;;20.13;;
83558;SDS011;73527;47.882;7.718;2024-02-28T03:42:14;31.80;;;19.08;;
83558;SDS011;73527;47.882;7.718;2024-02-28T03:44:39;32.47;;;18.67;;
83558;SDS011;73527;47.882;7.718;2024-02-28T03:47:04;34.80;;;18.92;;
83558;SDS011;73527;47.882;7.718;2024-02-28T03:49:30;31.60;;;19.20;;
83558;SDS011;73527;47.882;7.718;2024-02-28T03:51:55;33.70;;;20.33;;
83558;SDS011;73527;47.882;7.718;2024-02-28T03:54:20;32.80;;;19.13;;
83558;SDS011;73527;47.882;7.718;2024-02-28T03:56:46;36.28;;;19.75;;
83558;SDS011;73527;47.882;7.718;2024-02-28T03:59:11;36.65;;;20.50;;
83558;SDS011;73527;47.882;7.718;2024-02-28T04:01:36;36.63;;;20.20;;
83558;SDS011;73527;47.882;7.718;2024-02-28T04:04:02;33.33;;;18.30;;
83558;SDS011;73527;47.882;7.718;2024-02-28T04:06:27;33.28;;;20.33;;
83558;SDS011;73527;47.882;7.718;2024-02-28T04:08:53;30.13;;;17.63;;
83558;SDS011;73527;47.882;7.718;2024-02-28T04:11:18;33.60;;;19.33;;
83558;SDS011;73527;47.882;7.718;2024-02-28T04:13:44;32.67;;;19.58;;
83558;SDS011;73527;47.882;7.718;2024-02-28T04:16:09;36.83;;;18.52;;
83558;SDS011;73527;47.882;7.718;2024-02-28T04:18:35;34.60;;;20.05;;
83558;SDS011;73527;47.882;7.718;2024-02-28T04:21:00;35.67;;;19.00;;
83558;SDS011;73527;47.882;7.718;2024-02-28T04:23:32;32.88;;;19.05;;
83558;SDS011;73527;47.882;7.718;2024-02-28T04:25:57;32.65;;;18.88;;
83558;SDS011;73527;47.882;7.718;2024-02-28T04:28:22;33.05;;;18.88;;
83558;SDS011;73527;47.882;7.718;2024-02-28T04:30:48;32.05;;;19.05;;
83558;SDS011;73527;47.882;7.718;2024-02-28T04:33:13;38.55;;;20.25;;
83558;SDS011;73527;47.882;7.718;2024-02-28T04:35:38;35.20;;;19.25;;
83558;SDS011;73527;47.882;7.718;2024-02-28T04:38:04;33.42;;;18.52;;
83558;SDS011;73527;47.882;7.718;2024-02-28T04:40:29;35.63;;;19.40;;
83558;SDS011;73527;47.882;7.718;2024-02-28T04:42:54;34.03;;;20.30;;
83558;SDS011;73527;47.882;7.718;2024-02-28T04:45:20;35.60;;;19.38;;
83558;SDS011;73527;47.882;7.718;2024-02-28T04:47:45;33.33;;;19.60;;
83558;SDS011;73527;47.882;7.718;2024-02-28T04:50:10;32.50;;;19.63;;
83558;SDS011;73527;47.882;7.718;2024-02-28T04:52:36;33.03;;;18.98;;
83558;SDS011;73527;47.882;7.718;2024-02-28T04:55:01;36.00;;;19.85;;
83558;SDS011;73527;47.882;7.718;2024-02-28T04:57:27;35.60;;;20.42;;
83558;SDS011;73527;47.882;7.718;2024-02-28T04:59:53;35.75;;;21.40;;
83558;SDS011;73527;47.882;7.718;2024-02-28T05:02:18;31.90;;;19.17;;
83558;SDS011;73527;47.882;7.718;2024-02-28T05:04:44;39.60;;;20.35;;
83558;SDS011;73527;47.882;7.718;2024-02-28T05:07:12;39.47;;;20.30;;
83558;SDS011;73527;47.882;7.718;2024-02-28T05:09:38;36.17;;;21.52;;
83558;SDS011;73527;47.882;7.718;2024-02-28T05:12:03;36.90;;;21.77;;
83558;SDS011;73527;47.882;7.718;2024-02-28T05:14:28;36.40;;;21.10;;
83558;SDS011;73527;47.882;7.718;2024-02-28T05:16:54;35.15;;;19.58;;
83558;SDS011;73527;47.882;7.718;2024-02-28T05:19:19;34.75;;;20.25;;
83558;SDS011;73527;47.882;7.718;2024-02-28T05:21:45;35.90;;;20.27;;
83558;SDS011;73527;47.882;7.718;2024-02-28T05:24:11;37.17;;;21.55;;
83558;SDS011;73527;47.882;7.718;2024-02-28T05:29:02;39.80;;;20.45;;
83558;SDS011;73527;47.882;7.718;2024-02-28T05:31:29;35.42;;;20.50;;
83558;SDS011;73527;47.882;7.718;2024-02-28T05:33:56;31.73;;;19.05;;
83558;SDS011;73527;47.882;7.718;2024-02-28T05:38:49;29.40;;;17.77;;
83558;SDS011;73527;47.882;7.718;2024-02-28T05:41:15;35.45;;;21.88;;
83558;SDS011;73527;47.882;7.718;2024-02-28T05:43:41;36.35;;;19.90;;
83558;SDS011;73527;47.882;7.718;2024-02-28T05:46:06;39.38;;;21.52;;
83558;SDS011;73527;47.882;7.718;2024-02-28T05:48:32;32.90;;;19.85;;
83558;SDS011;73527;47.882;7.718;2024-02-28T05:50:57;35.22;;;20.50;;
83558;SDS011;73527;47.882;7.718;2024-02-28T05:53:22;36.70;;;21.80;;
83558;SDS011;73527;47.882;7.718;2024-02-28T05:55:51;38.78;;;20.50;;
83558;SDS011;73527;47.882;7.718;2024-02-28T05:58:18;35.97;;;20.55;;
83558;SDS011;73527;47.882;7.718;2024-02-28T06:00:44;36.17;;;19.75;;
83558;SDS011;73527;47.882;7.718;2024-02-28T06:03:09;34.35;;;19.50;;
83558;SDS011;73527;47.882;7.718;2024-02-28T06:05:35;39.58;;;19.77;;
83558;SDS011;73527;47.882;7.718;2024-02-28T06:08:00;37.33;;;20.35;;
83558;SDS011;73527;47.882;7.718;2024-02-28T06:10:25;34.28;;;20.67;;
83558;SDS011;73527;47.882;7.718;2024-02-28T06:12:51;32.33;;;19.83;;
83558;SDS011;73527;47.882;7.718;2024-02-28T06:15:17;35.90;;;20.77;;
83558;SDS011;73527;47.882;7.718;2024-02-28T06:17:42;34.28;;;19.38;;
83558;SDS011;73527;47.882;7.718;2024-02-28T06:20:07;34.58;;;20.52;;
83558;SDS011;73527;47.882;7.718;2024-02-28T06:22:33;36.80;;;21.88;;
83558;SDS011;73527;47.882;7.718;2024-02-28T06:24:58;37.83;;;21.92;;
83558;SDS011;73527;47.882;7.718;2024-02-28T06:27:24;36.40;;;22.35;;
83558;SDS011;73527;47.882;7.718;2024-02-28T06:29:51;36.00;;;21.27;;
83558;SDS011;73527;47.882;7.718;2024-02-28T06:32:17;37.10;;;22.40;;
83558;SDS011;73527;47.882;7.718;2024-02-28T06:34:42;40.30;;;21.52;;
83558;SDS011;73527;47.882;7.718;2024-02-28T06:37:07;37.78;;;20.60;;
83558;SDS011;73527;47.882;7.718;2024-02-28T06:39:33;38.00;;;22.98;;
83558;SDS011;73527;47.882;7.718;2024-02-28T06:41:58;41.22;;;23.17;;
83558;SDS011;73527;47.882;7.718;2024-02-28T06:44:24;43.35;;;23.40;;
83558;SDS011;73527;47.882;7.718;2024-02-28T06:46:49;42.95;;;23.15;;
83558;SDS011;73527;47.882;7.718;2024-02-28T06:49:14;41.67;;;21.33;;
83558;SDS011;73527;47.882;7.718;2024-02-28T06:51:40;40.22;;;20.63;;
83558;SDS011;73527;47.882;7.718;2024-02-28T06:54:05;43.15;;;23.08;;
83558;SDS011;73527;47.882;7.718;2024-02-28T06:56:30;39.55;;;20.50;;
83558;SDS011;73527;47.882;7.718;2024-02-28T06:58:56;39.55;;;20.52;;
83558;SDS011;73527;47.882;7.718;2024-02-28T07:01:21;37.03;;;21.17;;
83558;SDS011;73527;47.882;7.718;2024-02-28T07:03:46;38.13;;;20.67;;
83558;SDS011;73527;47.882;7.718;2024-02-28T07:06:12;39.80;;;22.15;;
83558;SDS011;73527;47.882;7.718;2024-02-28T07:08:37;38.50;;;21.58;;
83558;SDS011;73527;47.882;7.718;2024-02-28T07:11:03;40.67;;;21.60;;
83558;SDS011;73527;47.882;7.718;2024-02-28T07:13:28;46.83;;;22.23;;
83558;SDS011;73527;47.882;7.718;2024-02-28T07:15:54;41.60;;;19.92;;
83558;SDS011;73527;47.882;7.718;2024-02-28T07:18:19;37.53;;;20.30;;
83558;SDS011;73527;47.882;7.718;2024-02-28T07:20:45;38.65;;;20.98;;
83558;SDS011;73527;47.882;7.718;2024-02-28T07:23:11;40.22;;;21.63;;
83558;SDS011;73527;47.882;7.718;2024-02-28T07:25:37;34.85;;;19.90;;
83558;SDS011;73527;47.882;7.718;2024-02-28T07:28:02;37.60;;;21.08;;
83558;SDS011;73527;47.882;7.718;2024-02-28T07:30:28;36.72;;;21.88;;
83558;SDS011;73527;47.882;7.718;2024-02-28T07:32:54;36.45;;;20.27;;
83558;SDS011;73527;47.882;7.718;2024-02-28T07:35:19;35.65;;;20.33;;
83558;SDS011;73527;47.882;7.718;2024-02-28T07:37:46;39.33;;;22.05;;
83558;SDS011;73527;47.882;7.718;2024-02-28T07:40:11;40.13;;;21.17;;
83558;SDS011;73527;47.882;7.718;2024-02-28T07:42:37;37.20;;;20.88;;
83558;SDS011;73527;47.882;7.718;2024-02-28T07:45:03;43.40;;;23.80;;
83558;SDS011;73527;47.882;7.718;2024-02-28T07:47:28;40.45;;;23.67;;
83558;SDS011;73527;47.882;7.718;2024-02-28T07:49:53;38.80;;;21.20;;
83558;SDS011;73527;47.882;7.718;2024-02-28T07:52:19;40.90;;;22.23;;
83558;SDS011;73527;47.882;7.718;2024-02-28T07:54:45;38.33;;;20.88;;
83558;SDS011;73527;47.882;7.718;2024-02-28T07:57:10;39.33;;;22.58;;
83558;SDS011;73527;47.882;7.718;2024-02-28T07:59:40;36.40;;;21.10;;
83558;SDS011;73527;47.882;7.718;2024-02-28T08:02:05;38.58;;;21.67;;
83558;SDS011;73527;47.882;7.718;2024-02-28T08:04:31;40.92;;;21.40;;
83558;SDS011;73527;47.882;7.718;2024-02-28T08:06:56;39.58;;;21.77;;
83558;SDS011;73527;47.882;7.718;2024-02-28T08:09:22;38.05;;;20.58;;
83558;SDS011;73527;47.882;7.718;2024-02-28T08:11:47;44.20;;;21.77;;
83558;SDS011;73527;47.882;7.718;2024-02-28T08:14:13;39.25;;;23.23;;
83558;SDS011;73527;47.882;7.718;2024-02-28T08:16:38;40.40;;;22.30;;
83558;SDS011;73527;47.882;7.718;2024-02-28T08:19:04;36.83;;;21.08;;
83558;SDS011;73527;47.882;7.718;2024-02-28T08:21:29;39.65;;;21.98;;
83558;SDS011;73527;47.882;7.718;2024-02-28T08:23:54;39.05;;;21.40;;
83558;SDS011;73527;47.882;7.718;2024-02-28T08:26:20;38.03;;;21.23;;
83558;SDS011;73527;47.882;7.718;2024-02-28T08:28:45;39.85;;;19.60;;
83558;SDS011;73527;47.882;7.718;2024-02-28T08:31:11;40.13;;;22.80;;
83558;SDS011;73527;47.882;7.718;2024-02-28T08:33:36;45.97;;;22.70;;
83558;SDS011;73527;47.882;7.718;2024-02-28T08:36:01;44.70;;;23.25;;
83558;SDS011;73527;47.882;7.718;2024-02-28T08:38:27;43.70;;;22.63;;
83558;SDS011;73527;47.882;7.718;2024-02-28T08:40:53;44.90;;;23.58;;
83558;SDS011;73527;47.882;7.718;2024-02-28T08:43:18;50.97;;;24.67;;
83558;SDS011;73527;47.882;7.718;2024-02-28T08:45:43;42.97;;;22.83;;
83558;SDS011;73527;47.882;7.718;2024-02-28T08:48:09;44.95;;;24.00;;
83558;SDS011;73527;47.882;7.718;2024-02-28T08:50:34;42.75;;;22.90;;
83558;SDS011;73527;47.882;7.718;2024-02-28T08:53:00;41.78;;;23.33;;
83558;SDS011;73527;47.882;7.718;2024-02-28T08:55:25;45.58;;;24.55;;
83558;SDS011;73527;47.882;7.718;2024-02-28T08:57:51;45.47;;;22.70;;
83558;SDS011;73527;47.882;7.718;2024-02-28T09:00:16;42.88;;;22.02;;
83558;SDS011;73527;47.882;7.718;2024-02-28T09:02:42;43.28;;;24.60;;
83558;SDS011;73527;47.882;7.718;2024-02-28T09:05:08;41.47;;;22.55;;
83558;SDS011;73527;47.882;7.718;2024-02-28T09:07:34;39.55;;;22.02;;
83558;SDS011;73527;47.882;7.718;2024-02-28T09:10:03;42.38;;;21.95;;
83558;SDS011;73527;47.882;7.718;2024-02-28T09:12:29;41.83;;;20.65;;
83558;SDS011;73527;47.882;7.718;2024-02-28T09:14:55;43.10;;;22.70;;
83558;SDS011;73527;47.882;7.718;2024-02-28T09:17:22;40.30;;;22.77;;
83558;SDS011;73527;47.882;7.718;2024-02-28T09:19:48;40.97;;;21.45;;
83558;SDS011;73527;47.882;7.718;2024-02-28T09:22:13;40.60;;;21.95;;
83558;SDS011;73527;47.882;7.718;2024-02-28T09:24:40;39.22;;;20.90;;
83558;SDS011;73527;47.882;7.718;2024-02-28T09:27:05;37.42;;;20.95;;
83558;SDS011;73527;47.882;7.718;2024-02-28T09:29:31;36.50;;;21.45;;
83558;SDS011;73527;47.882;7.718;2024-02-28T09:31:56;36.35;;;20.63;;
83558;SDS011;73527;47.882;7.718;2024-02-28T09:34:22;35.97;;;19.58;;
83558;SDS011;73527;47.882;7.718;2024-02-28T09:36:47;34.92;;;19.80;;
83558;SDS011;73527;47.882;7.718;2024-02-28T09:39:13;35.40;;;19.48;;
83558;SDS011;73527;47.882;7.718;2024-02-28T09:41:40;32.58;;;20.20;;
83558;SDS011;73527;47.882;7.718;2024-02-28T09:44:06;36.50;;;19.90;;
83558;SDS011;73527;47.882;7.718;2024-02-28T09:46:33;37.45;;;20.38;;
83558;SDS011;73527;47.882;7.718;2024-02-28T09:49:04;40.30;;;20.67;;
83558;SDS011;73527;47.882;7.718;2024-02-28T09:51:34;34.88;;;19.70;;
83558;SDS011;73527;47.882;7.718;2024-02-28T09:54:03;32.80;;;19.08;;
83558;SDS011;73527;47.882;7.718;2024-02-28T09:56:29;35.05;;;19.48;;
83558;SDS011;73527;47.882;7.718;2024-02-28T10:01:21;33.75;;;20.17;;
83558;SDS011;73527;47.882;7.718;2024-02-28T10:03:47;29.35;;;17.42;;
83558;SDS011;73527;47.882;7.718;2024-02-28T10:06:15;29.38;;;16.98;;
83558;SDS011;73527;47.882;7.718;2024-02-28T10:08:41;33.72;;;19.25;;
83558;SDS011;73527;47.882;7.718;2024-02-28T10:11:06;26.80;;;17.70;;
83558;SDS011;73527;47.882;7.718;2024-02-28T10:13:31;28.67;;;18.67;;
83558;SDS011;73527;47.882;7.718;2024-02-28T10:15:57;28.10;;;18.30;;
83558;SDS011;73527;47.882;7.718;2024-02-28T10:20:47;28.07;;;17.57;;
83558;SDS011;73527;47.882;7.718;2024-02-28T10:25:45;27.05;;;16.77;;
83558;SDS011;73527;47.882;7.718;2024-02-28T10:28:12;26.05;;;16.80;;
83558;SDS011;73527;47.882;7.718;2024-02-28T10:30:40;24.88;;;16.40;;
83558;SDS011;73527;47.882;7.718;2024-02-28T10:33:09;23.30;;;16.52;;
83558;SDS011;73527;47.882;7.718;2024-02-28T10:35:39;26.95;;;17.75;;
83558;SDS011;73527;47.882;7.718;2024-02-28T10:38:12;26.98;;;17.90;;
83558;SDS011;73527;47.882;7.718;2024-02-28T10:40:41;25.25;;;17.40;;
83558;SDS011;73527;47.882;7.718;2024-02-28T10:43:07;27.80;;;18.73;;
83558;SDS011;73527;47.882;7.718;2024-02-28T10:45:35;28.08;;;17.70;;
83558;SDS011;73527;47.882;7.718;2024-02-28T10:48:03;23.73;;;17.35;;
83558;SDS011;73527;47.882;7.718;2024-02-28T10:50:29;28.83;;;18.63;;
83558;SDS011;73527;47.882;7.718;2024-02-28T10:52:54;22.95;;;17.33;;
83558;SDS011;73527;47.882;7.718;2024-02-28T10:55:27;25.55;;;17.35;;
83558;SDS011;73527;47.882;7.718;2024-02-28T10:58:01;26.65;;;18.08;;
83558;SDS011;73527;47.882;7.718;2024-02-28T11:00:32;24.52;;;17.27;;
83558;SDS011;73527;47.882;7.718;2024-02-28T11:02:59;27.05;;;19.10;;
83558;SDS011;73527;47.882;7.718;2024-02-28T11:10:35;28.05;;;19.33;;
83558;SDS011;73527;47.882;7.718;2024-02-28T11:13:00;25.75;;;18.23;;
83558;SDS011;73527;47.882;7.718;2024-02-28T11:17:52;28.90;;;18.55;;
83558;SDS011;73527;47.882;7.718;2024-02-28T11:22:43;25.08;;;16.58;;
83558;SDS011;73527;47.882;7.718;2024-02-28T11:27:34;24.92;;;17.85;;
83558;SDS011;73527;47.882;7.718;2024-02-28T11:30:10;23.88;;;14.93;;
83558;SDS011;73527;47.882;7.718;2024-02-28T11:32:37;26.38;;;17.38;;
83558;SDS011;73527;47.882;7.718;2024-02-28T11:35:02;24.48;;;16.52;;
83558;SDS011;73527;47.882;7.718;2024-02-28T11:37:28;25.77;;;17.08;;
83558;SDS011;73527;47.882;7.718;2024-02-28T11:42:19;24.02;;;16.58;;
83558;SDS011;73527;47.882;7.718;2024-02-28T11:47:17;23.58;;;13.40;;
83558;SDS011;73527;47.882;7.718;2024-02-28T11:49:43;21.13;;;14.70;;
83558;SDS011;73527;47.882;7.718;2024-02-28T11:52:09;24.10;;;15.52;;
83558;SDS011;73527;47.882;7.718;2024-02-28T11:54:36;22.83;;;15.02;;
83558;SDS011;73527;47.882;7.718;2024-02-28T11:59:26;20.52;;;14.18;;
83558;SDS011;73527;47.882;7.718;2024-02-28T12:04:17;19.70;;;12.60;;
83558;SDS011;73527;47.882;7.718;2024-02-28T12:09:09;20.60;;;11.77;;
83558;SDS011;73527;47.882;7.718;2024-02-28T12:11:37;19.02;;;12.93;;
83558;SDS011;73527;47.882;7.718;2024-02-28T12:14:06;20.42;;;13.02;;
83558;SDS011;73527;47.882;7.718;2024-02-28T12:16:34;19.52;;;13.30;;
83558;SDS011;73527;47.882;7.718;2024-02-28T12:19:02;23.38;;;13.57;;
83558;SDS011;73527;47.882;7.718;2024-02-28T12:21:29;21.67;;;14.27;;
83558;SDS011;73527;47.882;7.718;2024-02-28T12:26:21;20.20;;;12.43;;
83558;SDS011;73527;47.882;7.718;2024-02-28T12:31:12;19.67;;;12.95;;
83558;SDS011;73527;47.882;7.718;2024-02-28T12:36:04;20.55;;;13.43;;
83558;SDS011;73527;47.882;7.718;2024-02-28T12:40:55;17.98;;;12.77;;
83558;SDS011;73527;47.882;7.718;2024-02-28T12:45:46;20.70;;;13.10;;
83558;SDS011;73527;47.882;7.718;2024-02-28T12:48:12;22.27;;;14.10;;
83558;SDS011;73527;47.882;7.718;2024-02-28T12:53:02;20.85;;;13.68;;
83558;SDS011;73527;47.882;7.718;2024-02-28T12:55:28;19.55;;;13.23;;
83558;SDS011;73527;47.882;7.718;2024-02-28T13:00:19;18.38;;;13.10;;
83558;SDS011;73527;47.882;7.718;2024-02-28T13:05:11;19.70;;;12.07;;
83558;SDS011;73527;47.882;7.718;2024-02-28T13:07:38;19.73;;;12.52;;
83558;SDS011;73527;47.882;7.718;2024-02-28T13:12:30;18.17;;;11.43;;
83558;SDS011;73527;47.882;7.718;2024-02-28T13:14:56;18.25;;;12.63;;
83558;SDS011;73527;47.882;7.718;2024-02-28T13:19:46;16.75;;;12.65;;
83558;SDS011;73527;47.882;7.718;2024-02-28T13:24:37;18.20;;;11.57;;
83558;SDS011;73527;47.882;7.718;2024-02-28T13:27:02;16.38;;;11.05;;
83558;SDS011;73527;47.882;7.718;2024-02-28T13:31:54;21.20;;;12.65;;
83558;SDS011;73527;47.882;7.718;2024-02-28T13:34:19;21.58;;;14.38;;
83558;SDS011;73527;47.882;7.718;2024-02-28T13:39:10;28.13;;;14.82;;
83558;SDS011;73527;47.882;7.718;2024-02-28T13:41:41;21.63;;;13.88;;
83558;SDS011;73527;47.882;7.718;2024-02-28T13:44:06;21.33;;;13.00;;
83558;SDS011;73527;47.882;7.718;2024-02-28T13:48:58;18.45;;;11.40;;
83558;SDS011;73527;47.882;7.718;2024-02-28T13:53:49;18.42;;;10.93;;
83558;SDS011;73527;47.882;7.718;2024-02-28T13:56:17;17.73;;;11.45;;
83558;SDS011;73527;47.882;7.718;2024-02-28T14:01:08;16.40;;;12.23;;
83558;SDS011;73527;47.882;7.718;2024-02-28T14:03:34;17.35;;;10.95;;
83558;SDS011;73527;47.882;7.718;2024-02-28T14:05:59;18.75;;;10.93;;
83558;SDS011;73527;47.882;7.718;2024-02-28T14:10:51;16.40;;;10.95;;
83558;SDS011;73527;47.882;7.718;2024-02-28T14:13:16;18.73;;;12.15;;
83558;SDS011;73527;47.882;7.718;2024-02-28T14:15:43;17.45;;;11.75;;
83558;SDS011;73527;47.882;7.718;2024-02-28T14:18:10;16.98;;;11.82;;
83558;SDS011;73527;47.882;7.718;2024-02-28T14:23:03;16.25;;;9.93;;
83558;SDS011;73527;47.882;7.718;2024-02-28T14:25:29;16.35;;;10.75;;
83558;SDS011;73527;47.882;7.718;2024-02-28T14:27:54;18.50;;;12.52;;
83558;SDS011;73527;47.882;7.718;2024-02-28T14:30:19;16.90;;;12.13;;
83558;SDS011;73527;47.882;7.718;2024-02-28T14:32:45;13.65;;;10.65;;
83558;SDS011;73527;47.882;7.718;2024-02-28T14:35:12;18.15;;;10.93;;
83558;SDS011;73527;47.882;7.718;2024-02-28T14:37:37;17.10;;;12.13;;
83558;SDS011;73527;47.882;7.718;2024-02-28T14:40:07;16.90;;;12.48;;
83558;SDS011;73527;47.882;7.718;2024-02-28T14:42:36;18.45;;;12.57;;
83558;SDS011;73527;47.882;7.718;2024-02-28T14:45:04;15.82;;;12.20;;
83558;SDS011;73527;47.882;7.718;2024-02-28T14:47:34;19.00;;;12.18;;
83558;SDS011;73527;47.882;7.718;2024-02-28T14:50:01;17.50;;;12.45;;
83558;SDS011;73527;47.882;7.718;2024-02-28T14:52:27;17.85;;;11.80;;
83558;SDS011;73527;47.882;7.718;2024-02-28T14:54:53;17.25;;;12.05;;
83558;SDS011;73527;47.882;7.718;2024-02-28T14:57:18;18.15;;;12.50;;
83558;SDS011;73527;47.882;7.718;2024-02-28T14:59:43;17.52;;;11.70;;
83558;SDS011;73527;47.882;7.718;2024-02-28T15:02:10;17.00;;;12.55;;
83558;SDS011;73527;47.882;7.718;2024-02-28T15:04:36;17.10;;;11.82;;
83558;SDS011;73527;47.882;7.718;2024-02-28T15:07:02;17.55;;;11.82;;
83558;SDS011;73527;47.882;7.718;2024-02-28T15:11:53;17.88;;;12.43;;
83558;SDS011;73527;47.882;7.718;2024-02-28T15:14:18;18.02;;;11.65;;
83558;SDS011;73527;47.882;7.718;2024-02-28T15:19:09;16.45;;;10.93;;
83558;SDS011;73527;47.882;7.718;2024-02-28T15:21:35;15.90;;;11.88;;
83558;SDS011;73527;47.882;7.718;2024-02-28T15:24:01;19.52;;;12.55;;
83558;SDS011;73527;47.882;7.718;2024-02-28T15:26:27;21.23;;;13.40;;
83558;SDS011;73527;47.882;7.718;2024-02-28T15:28:53;16.27;;;11.90;;
83558;SDS011;73527;47.882;7.718;2024-02-28T15:33:45;19.02;;;12.57;;
83558;SDS011;73527;47.882;7.718;2024-02-28T15:38:36;18.83;;;11.47;;
83558;SDS011;73527;47.882;7.718;2024-02-28T15:43:27;19.90;;;12.30;;
83558;SDS011;73527;47.882;7.718;2024-02-28T15:48:18;19.60;;;12.10;;
83558;SDS011;73527;47.882;7.718;2024-02-28T15:53:09;16.60;;;10.20;;
83558;SDS011;73527;47.882;7.718;2024-02-28T15:57:59;18.70;;;11.70;;
83558;SDS011;73527;47.882;7.718;2024-02-28T16:02:50;16.80;;;10.47;;